BTO5107 SCNK-SCVN
Flight info
| Callsign | BTO5107 |
|---|---|
| Flight time | N/A |
| Altitude | 12000 |
| Route | D |
| Aircraft | C172/L-VGDW/C |
Departure
| Time | N/A |
|---|---|
| Airport | Los Pelambres Airport (SCNK) |
Arrival
| Time | 2026-04-28 13:14 |
|---|---|
| Airport | Huancara Airport (SCVN) |
| Time | Latitude | Longitude | Altitude | Speed | Heading |
|---|---|---|---|---|---|
| 2026-04-28 12:26 | -31.48297 | -70.92001 | 12021 ft | 134 kts | 357° |
| 2026-04-28 12:26 | -31.47363 | -70.92010 | 12021 ft | 134 kts | 357° |
| 2026-04-28 12:26 | -31.46430 | -70.92019 | 12022 ft | 134 kts | 357° |
| 2026-04-28 12:27 | -31.45492 | -70.92028 | 12022 ft | 134 kts | 357° |
| 2026-04-28 12:27 | -31.44558 | -70.92037 | 12022 ft | 134 kts | 357° |
| 2026-04-28 12:27 | -31.43624 | -70.92046 | 12022 ft | 134 kts | 357° |
| 2026-04-28 12:27 | -31.42682 | -70.92055 | 12023 ft | 134 kts | 357° |
| 2026-04-28 12:28 | -31.41753 | -70.92065 | 12023 ft | 134 kts | 357° |
| 2026-04-28 12:28 | -31.40818 | -70.92075 | 12023 ft | 134 kts | 357° |
| 2026-04-28 12:28 | -31.39872 | -70.92084 | 12024 ft | 134 kts | 357° |
| 2026-04-28 12:28 | -31.38938 | -70.92094 | 12024 ft | 134 kts | 357° |
| 2026-04-28 12:29 | -31.37073 | -70.92115 | 12025 ft | 134 kts | 357° |
| 2026-04-28 12:29 | -31.36134 | -70.92125 | 12026 ft | 134 kts | 357° |
| 2026-04-28 12:29 | -31.35205 | -70.92136 | 12026 ft | 134 kts | 357° |
| 2026-04-28 12:30 | -31.34271 | -70.92146 | 12027 ft | 134 kts | 357° |
| 2026-04-28 12:30 | -31.33335 | -70.92157 | 12027 ft | 134 kts | 357° |
| 2026-04-28 12:30 | -31.32397 | -70.92168 | 12028 ft | 135 kts | 357° |
| 2026-04-28 12:30 | -31.31458 | -70.92179 | 12028 ft | 135 kts | 357° |
| 2026-04-28 12:31 | -31.30531 | -70.92190 | 12029 ft | 135 kts | 357° |
| 2026-04-28 12:31 | -31.29594 | -70.92201 | 12029 ft | 135 kts | 357° |
| 2026-04-28 12:31 | -31.28653 | -70.92213 | 12030 ft | 135 kts | 357° |
| 2026-04-28 12:31 | -31.27724 | -70.92224 | 12031 ft | 135 kts | 357° |
| 2026-04-28 12:32 | -31.26779 | -70.92236 | 12031 ft | 135 kts | 357° |
| 2026-04-28 12:32 | -31.25851 | -70.92248 | 12032 ft | 135 kts | 357° |
| 2026-04-28 12:32 | -31.24914 | -70.92260 | 12033 ft | 135 kts | 357° |
| 2026-04-28 12:32 | -31.23976 | -70.92272 | 12034 ft | 135 kts | 357° |
| 2026-04-28 12:33 | -31.23043 | -70.92284 | 12035 ft | 135 kts | 357° |
| 2026-04-28 12:33 | -31.22108 | -70.92297 | 12035 ft | 135 kts | 357° |
| 2026-04-28 12:33 | -31.21176 | -70.92310 | 12036 ft | 135 kts | 357° |
| 2026-04-28 12:33 | -31.20230 | -70.92322 | 12037 ft | 135 kts | 357° |
| 2026-04-28 12:34 | -31.19296 | -70.92335 | 12038 ft | 135 kts | 357° |
| 2026-04-28 12:34 | -31.18360 | -70.92348 | 12039 ft | 135 kts | 357° |
| 2026-04-28 12:34 | -31.17426 | -70.92361 | 12040 ft | 135 kts | 357° |
| 2026-04-28 12:34 | -31.16494 | -70.92374 | 12041 ft | 135 kts | 357° |
| 2026-04-28 12:35 | -31.15555 | -70.92388 | 12042 ft | 135 kts | 357° |
| 2026-04-28 12:35 | -31.14609 | -70.92402 | 12043 ft | 135 kts | 357° |
| 2026-04-28 12:35 | -31.13678 | -70.92416 | 12044 ft | 135 kts | 357° |
| 2026-04-28 12:35 | -31.12732 | -70.92429 | 12045 ft | 135 kts | 357° |
| 2026-04-28 12:36 | -31.11807 | -70.92443 | 12046 ft | 135 kts | 357° |
| 2026-04-28 12:36 | -31.10862 | -70.92458 | 12047 ft | 135 kts | 357° |
| 2026-04-28 12:36 | -31.09924 | -70.92472 | 12048 ft | 135 kts | 357° |
| 2026-04-28 12:36 | -31.08985 | -70.92487 | 12049 ft | 135 kts | 357° |
| 2026-04-28 12:37 | -31.08042 | -70.92501 | 12051 ft | 135 kts | 357° |
| 2026-04-28 12:37 | -31.07102 | -70.92516 | 12052 ft | 135 kts | 357° |
| 2026-04-28 12:37 | -31.06169 | -70.92531 | 12053 ft | 135 kts | 357° |
| 2026-04-28 12:37 | -31.05232 | -70.92545 | 12054 ft | 135 kts | 357° |
| 2026-04-28 12:38 | -31.04295 | -70.92561 | 12056 ft | 135 kts | 357° |
| 2026-04-28 12:38 | -31.03361 | -70.92576 | 12057 ft | 135 kts | 357° |
| 2026-04-28 12:38 | -31.02432 | -70.92591 | 12058 ft | 135 kts | 357° |
| 2026-04-28 12:38 | -31.01487 | -70.92606 | 12060 ft | 134 kts | 357° |
| 2026-04-28 12:39 | -31.00558 | -70.92621 | 12061 ft | 134 kts | 357° |
| 2026-04-28 12:39 | -30.99627 | -70.92636 | 12062 ft | 134 kts | 357° |
| 2026-04-28 12:39 | -30.98699 | -70.92651 | 12063 ft | 134 kts | 357° |
| 2026-04-28 12:39 | -30.97765 | -70.92667 | 12064 ft | 134 kts | 357° |
| 2026-04-28 12:40 | -30.96838 | -70.92682 | 12066 ft | 133 kts | 357° |
| 2026-04-28 12:40 | -30.95903 | -70.92698 | 12067 ft | 133 kts | 357° |
| 2026-04-28 12:40 | -30.94983 | -70.92713 | 12068 ft | 133 kts | 357° |
| 2026-04-28 12:40 | -30.94051 | -70.92730 | 12069 ft | 133 kts | 357° |
| 2026-04-28 12:41 | -30.93127 | -70.92746 | 12070 ft | 133 kts | 357° |
| 2026-04-28 12:41 | -30.92207 | -70.92763 | 12071 ft | 133 kts | 357° |
| 2026-04-28 12:41 | -30.91292 | -70.92780 | 12072 ft | 132 kts | 357° |
| 2026-04-28 12:41 | -30.90375 | -70.92798 | 12073 ft | 132 kts | 357° |
| 2026-04-28 12:42 | -30.89453 | -70.92815 | 12073 ft | 132 kts | 357° |
| 2026-04-28 12:42 | -30.88534 | -70.92834 | 12073 ft | 132 kts | 357° |
| 2026-04-28 12:42 | -30.87617 | -70.92853 | 12072 ft | 132 kts | 357° |
| 2026-04-28 12:42 | -30.86701 | -70.92873 | 12072 ft | 132 kts | 357° |
| 2026-04-28 12:43 | -30.85788 | -70.92893 | 12071 ft | 132 kts | 357° |
| 2026-04-28 12:43 | -30.84875 | -70.92912 | 12071 ft | 132 kts | 357° |
| 2026-04-28 12:43 | -30.83960 | -70.92932 | 12071 ft | 132 kts | 357° |
| 2026-04-28 12:43 | -30.83041 | -70.92952 | 12070 ft | 132 kts | 357° |
| 2026-04-28 12:44 | -30.82126 | -70.92972 | 12070 ft | 132 kts | 357° |
| 2026-04-28 12:44 | -30.81213 | -70.92992 | 12070 ft | 132 kts | 357° |
| 2026-04-28 12:44 | -30.80292 | -70.93012 | 12070 ft | 132 kts | 357° |
| 2026-04-28 12:44 | -30.79384 | -70.93032 | 12069 ft | 132 kts | 357° |
| 2026-04-28 12:45 | -30.78461 | -70.93053 | 12069 ft | 132 kts | 357° |
| 2026-04-28 12:45 | -30.77548 | -70.93073 | 12069 ft | 132 kts | 357° |
| 2026-04-28 12:45 | -30.76632 | -70.93094 | 12069 ft | 132 kts | 357° |
| 2026-04-28 12:45 | -30.75721 | -70.93115 | 12068 ft | 132 kts | 357° |
| 2026-04-28 12:46 | -30.74808 | -70.93136 | 12068 ft | 132 kts | 357° |
| 2026-04-28 12:46 | -30.73895 | -70.93156 | 12068 ft | 132 kts | 357° |
| 2026-04-28 12:46 | -30.72979 | -70.93178 | 12068 ft | 132 kts | 357° |
| 2026-04-28 12:46 | -30.72057 | -70.93199 | 12068 ft | 132 kts | 357° |
| 2026-04-28 12:47 | -30.71153 | -70.93220 | 12068 ft | 132 kts | 357° |
| 2026-04-28 12:47 | -30.70226 | -70.93242 | 12067 ft | 132 kts | 357° |
| 2026-04-28 12:47 | -30.69315 | -70.93263 | 12067 ft | 132 kts | 357° |
| 2026-04-28 12:47 | -30.68401 | -70.93285 | 12067 ft | 132 kts | 357° |
| 2026-04-28 12:48 | -30.67487 | -70.93307 | 12067 ft | 132 kts | 357° |
| 2026-04-28 12:48 | -30.66574 | -70.93329 | 12067 ft | 132 kts | 357° |
| 2026-04-28 12:48 | -30.65661 | -70.93351 | 12067 ft | 132 kts | 357° |
| 2026-04-28 12:48 | -30.64717 | -70.93374 | 12067 ft | 132 kts | 357° |
| 2026-04-28 12:49 | -30.63793 | -70.93396 | 12067 ft | 132 kts | 357° |
| 2026-04-28 12:49 | -30.62841 | -70.93420 | 12067 ft | 132 kts | 357° |
| 2026-04-28 12:49 | -30.61873 | -70.93443 | 12067 ft | 132 kts | 357° |
| 2026-04-28 12:49 | -30.60881 | -70.93468 | 12066 ft | 132 kts | 357° |
| 2026-04-28 12:50 | -30.59903 | -70.93492 | 12066 ft | 132 kts | 357° |
| 2026-04-28 12:50 | -30.58921 | -70.93516 | 12066 ft | 132 kts | 357° |
| 2026-04-28 12:50 | -30.57943 | -70.93541 | 12066 ft | 132 kts | 357° |
| 2026-04-28 12:50 | -30.56969 | -70.93565 | 12066 ft | 132 kts | 357° |
| 2026-04-28 12:51 | -30.55987 | -70.93591 | 12066 ft | 132 kts | 357° |
| 2026-04-28 12:51 | -30.55014 | -70.93616 | 12066 ft | 132 kts | 357° |
| 2026-04-28 12:51 | -30.54023 | -70.93641 | 12066 ft | 132 kts | 357° |
| 2026-04-28 12:51 | -30.53036 | -70.93666 | 12067 ft | 132 kts | 357° |
| 2026-04-28 12:52 | -30.52060 | -70.93692 | 12067 ft | 132 kts | 357° |
| 2026-04-28 12:52 | -30.51130 | -70.93716 | 12067 ft | 132 kts | 357° |
| 2026-04-28 12:52 | -30.50214 | -70.93740 | 12067 ft | 132 kts | 357° |
| 2026-04-28 12:52 | -30.49302 | -70.93764 | 12067 ft | 132 kts | 357° |
| 2026-04-28 12:53 | -30.48382 | -70.93778 | 12065 ft | 132 kts | 2° |
| 2026-04-28 12:53 | -30.47513 | -70.93437 | 12063 ft | 133 kts | 24° |
| 2026-04-28 12:53 | -30.46680 | -70.92965 | 12063 ft | 133 kts | 25° |
| 2026-04-28 12:53 | -30.45856 | -70.92487 | 12063 ft | 133 kts | 25° |
| 2026-04-28 12:54 | -30.45020 | -70.91999 | 12064 ft | 133 kts | 25° |
| 2026-04-28 12:54 | -30.44194 | -70.91518 | 12064 ft | 133 kts | 25° |
| 2026-04-28 12:54 | -30.43368 | -70.91037 | 12064 ft | 133 kts | 25° |
| 2026-04-28 12:54 | -30.42517 | -70.90636 | 12060 ft | 132 kts | 6° |
| 2026-04-28 12:55 | -30.41599 | -70.90604 | 12063 ft | 131 kts | 357° |
| 2026-04-28 12:55 | -30.40690 | -70.90621 | 12063 ft | 131 kts | 357° |
| 2026-04-28 12:55 | -30.39772 | -70.90643 | 12064 ft | 131 kts | 356° |
| 2026-04-28 12:55 | -30.38869 | -70.90665 | 12064 ft | 131 kts | 356° |
| 2026-04-28 12:56 | -30.37950 | -70.90688 | 12064 ft | 131 kts | 356° |
| 2026-04-28 12:56 | -30.37032 | -70.90710 | 12064 ft | 131 kts | 356° |
| 2026-04-28 12:56 | -30.36127 | -70.90733 | 12065 ft | 131 kts | 356° |
| 2026-04-28 12:56 | -30.35210 | -70.90755 | 12065 ft | 131 kts | 356° |
| 2026-04-28 12:57 | -30.34296 | -70.90778 | 12065 ft | 131 kts | 356° |
| 2026-04-28 12:57 | -30.33376 | -70.90801 | 12066 ft | 131 kts | 356° |
| 2026-04-28 12:57 | -30.32471 | -70.90823 | 12066 ft | 131 kts | 356° |
| 2026-04-28 12:57 | -30.31555 | -70.90846 | 12066 ft | 131 kts | 356° |
| 2026-04-28 12:58 | -30.30638 | -70.90869 | 12067 ft | 131 kts | 356° |
| 2026-04-28 12:58 | -30.29730 | -70.90893 | 12067 ft | 131 kts | 356° |
| 2026-04-28 12:58 | -30.28809 | -70.90916 | 12067 ft | 131 kts | 356° |
| 2026-04-28 12:58 | -30.27898 | -70.90939 | 12068 ft | 131 kts | 356° |
| 2026-04-28 12:59 | -30.26984 | -70.90963 | 12068 ft | 131 kts | 356° |
| 2026-04-28 12:59 | -30.26067 | -70.90987 | 12069 ft | 131 kts | 356° |
| 2026-04-28 12:59 | -30.25159 | -70.91010 | 12069 ft | 131 kts | 356° |
| 2026-04-28 12:59 | -30.24238 | -70.91035 | 12070 ft | 131 kts | 356° |
| 2026-04-28 13:00 | -30.23325 | -70.91058 | 12070 ft | 131 kts | 356° |
| 2026-04-28 13:00 | -30.22405 | -70.91083 | 12070 ft | 131 kts | 356° |
| 2026-04-28 13:00 | -30.21498 | -70.91107 | 12071 ft | 132 kts | 356° |
| 2026-04-28 13:00 | -30.20573 | -70.91132 | 11989 ft | 137 kts | 356° |
| 2026-04-28 13:01 | -30.19574 | -70.91162 | 11790 ft | 146 kts | 356° |
| 2026-04-28 13:01 | -30.18553 | -70.91195 | 11594 ft | 150 kts | 356° |
| 2026-04-28 13:01 | -30.17510 | -70.91231 | 11392 ft | 151 kts | 356° |
| 2026-04-28 13:01 | -30.16444 | -70.91269 | 11121 ft | 155 kts | 356° |
| 2026-04-28 13:02 | -30.15414 | -70.91305 | 10821 ft | 144 kts | 357° |
| 2026-04-28 13:02 | -30.14426 | -70.91340 | 10516 ft | 138 kts | 357° |
| 2026-04-28 13:02 | -30.13486 | -70.91374 | 10217 ft | 135 kts | 357° |
| 2026-04-28 13:02 | -30.12555 | -70.91410 | 9952 ft | 131 kts | 357° |
| 2026-04-28 13:03 | -30.11657 | -70.91446 | 9702 ft | 129 kts | 357° |
| 2026-04-28 13:03 | -30.10777 | -70.91482 | 9453 ft | 127 kts | 357° |
| 2026-04-28 13:03 | -30.09898 | -70.91520 | 9202 ft | 127 kts | 357° |
| 2026-04-28 13:03 | -30.08991 | -70.91561 | 8865 ft | 133 kts | 357° |
| 2026-04-28 13:04 | -30.08055 | -70.91607 | 8518 ft | 137 kts | 357° |
| 2026-04-28 13:04 | -30.07103 | -70.91655 | 8171 ft | 139 kts | 357° |
| 2026-04-28 13:04 | -30.06147 | -70.91707 | 7825 ft | 140 kts | 357° |
| 2026-04-28 13:04 | -30.05183 | -70.91760 | 7476 ft | 138 kts | 357° |
| 2026-04-28 13:05 | -30.04234 | -70.91816 | 7124 ft | 135 kts | 357° |
| 2026-04-28 13:05 | -30.03309 | -70.91872 | 6772 ft | 132 kts | 357° |
| 2026-04-28 13:05 | -30.02411 | -70.91930 | 6424 ft | 130 kts | 351° |
| 2026-04-28 13:05 | -30.01523 | -70.92019 | 6069 ft | 128 kts | 352° |
| 2026-04-28 13:06 | -30.00663 | -70.91986 | 5601 ft | 127 kts | 20° |
| 2026-04-28 13:06 | -30.00088 | -70.91354 | 5276 ft | 117 kts | 51° |
| 2026-04-28 13:06 | -29.99547 | -70.90721 | 4837 ft | 86 kts | 43° |
| 2026-04-28 13:06 | -29.99327 | -70.90205 | 4535 ft | 74 kts | 53° |
| 2026-04-28 13:07 | -29.99076 | -70.89702 | 4152 ft | 70 kts | 88° |
| 2026-04-28 13:07 | -29.99076 | -70.89154 | 3795 ft | 70 kts | 90° |
| 2026-04-28 13:07 | -29.99062 | -70.88598 | 3450 ft | 67 kts | 92° |
| 2026-04-28 13:07 | -29.99099 | -70.88258 | 3297 ft | 62 kts | 97° |
| 2026-04-28 13:08 | -29.99146 | -70.87493 | 3148 ft | 75 kts | 91° |
| 2026-04-28 13:08 | -29.99212 | -70.86884 | 3148 ft | 77 kts | 94° |
| 2026-04-28 13:08 | -29.99273 | -70.86277 | 3190 ft | 75 kts | 99° |
| 2026-04-28 13:08 | -29.99445 | -70.85695 | 3209 ft | 77 kts | 108° |
| 2026-04-28 13:09 | -29.99678 | -70.85136 | 3242 ft | 75 kts | 120° |
| 2026-04-28 13:09 | -29.99952 | -70.84610 | 3234 ft | 77 kts | 124° |
| 2026-04-28 13:09 | -30.00274 | -70.84099 | 3183 ft | 80 kts | 116° |
| 2026-04-28 13:09 | -30.00473 | -70.83493 | 3113 ft | 81 kts | 112° |
| 2026-04-28 13:10 | -30.00759 | -70.82952 | 3019 ft | 80 kts | 129° |
| 2026-04-28 13:10 | -30.01040 | -70.82400 | 2849 ft | 82 kts | 114° |
| 2026-04-28 13:10 | -30.01405 | -70.81910 | 2607 ft | 84 kts | 137° |
| 2026-04-28 13:10 | -30.01695 | -70.81351 | 2290 ft | 79 kts | 123° |
| 2026-04-28 13:11 | -30.01929 | -70.80832 | 2126 ft | 68 kts | 73° |
| 2026-04-28 13:11 | -30.01976 | -70.80311 | 2069 ft | 68 kts | 104° |
| 2026-04-28 13:11 | -30.02030 | -70.79784 | 2064 ft | 66 kts | 97° |
| 2026-04-28 13:11 | -30.02096 | -70.79255 | 2050 ft | 67 kts | 99° |
| 2026-04-28 13:12 | -30.02166 | -70.78735 | 2048 ft | 63 kts | 89° |
| 2026-04-28 13:12 | -30.02235 | -70.78225 | 2031 ft | 64 kts | 83° |
| 2026-04-28 13:12 | -30.02296 | -70.77718 | 2014 ft | 63 kts | 101° |
| 2026-04-28 13:12 | -30.02325 | -70.77250 | 2054 ft | 55 kts | 86° |
| 2026-04-28 13:13 | -30.02390 | -70.76810 | 2094 ft | 54 kts | 109° |
| 2026-04-28 13:13 | -30.02526 | -70.76392 | 2091 ft | 57 kts | 91° |
| 2026-04-28 13:13 | -30.02396 | -70.75997 | 2068 ft | 53 kts | 96° |
| 2026-04-28 13:13 | -30.02541 | -70.75564 | 2057 ft | 60 kts | 118° |
| 2026-04-28 13:14 | -30.02681 | -70.75169 | 1980 ft | 51 kts | 120° |
| 2026-04-28 13:14 | -30.02796 | -70.74878 | 1971 ft | 22 kts | 98° |
| 2026-04-28 13:14 | -30.02815 | -70.74786 | 1971 ft | 8 kts | 118° |
| 2026-04-28 13:14 | -30.02865 | -70.74744 | 1971 ft | 2 kts | 117° |
| 2026-04-28 13:15 | -30.02865 | -70.74741 | 1971 ft | 0 kts | 120° |